sensor_id;sensor_type;location;lat;lon;timestamp;temperature;humidity
16269;DHT22;8242;50.434;8.496;2023-02-07T00:00:22;16.20;95.30
16269;DHT22;8242;50.434;8.496;2023-02-07T00:02:49;16.20;95.30
16269;DHT22;8242;50.434;8.496;2023-02-07T00:05:16;16.20;95.20
16269;DHT22;8242;50.434;8.496;2023-02-07T00:07:42;16.30;95.10
16269;DHT22;8242;50.434;8.496;2023-02-07T00:10:09;16.40;95.00
16269;DHT22;8242;50.434;8.496;2023-02-07T00:12:36;16.50;94.90
16269;DHT22;8242;50.434;8.496;2023-02-07T00:15:03;16.60;94.70
16269;DHT22;8242;50.434;8.496;2023-02-07T00:17:31;16.70;94.60
16269;DHT22;8242;50.434;8.496;2023-02-07T00:19:57;16.80;94.50
16269;DHT22;8242;50.434;8.496;2023-02-07T00:22:24;16.80;94.40
16269;DHT22;8242;50.434;8.496;2023-02-07T00:24:50;16.90;94.50
16269;DHT22;8242;50.434;8.496;2023-02-07T00:27:17;16.80;94.40
16269;DHT22;8242;50.434;8.496;2023-02-07T00:29:44;16.80;94.50
16269;DHT22;8242;50.434;8.496;2023-02-07T00:32:10;16.80;94.50
16269;DHT22;8242;50.434;8.496;2023-02-07T00:34:38;16.80;94.50
16269;DHT22;8242;50.434;8.496;2023-02-07T00:37:05;16.70;94.50
16269;DHT22;8242;50.434;8.496;2023-02-07T00:39:32;16.70;94.60
16269;DHT22;8242;50.434;8.496;2023-02-07T00:41:58;16.60;94.60
16269;DHT22;8242;50.434;8.496;2023-02-07T00:44:25;16.60;94.60
16269;DHT22;8242;50.434;8.496;2023-02-07T00:46:51;16.50;94.60
16269;DHT22;8242;50.434;8.496;2023-02-07T00:49:18;16.50;94.70
16269;DHT22;8242;50.434;8.496;2023-02-07T00:51:46;16.50;94.70
16269;DHT22;8242;50.434;8.496;2023-02-07T00:54:12;16.40;94.70
16269;DHT22;8242;50.434;8.496;2023-02-07T00:56:39;16.40;94.70
16269;DHT22;8242;50.434;8.496;2023-02-07T00:59:05;16.40;94.70
16269;DHT22;8242;50.434;8.496;2023-02-07T01:01:32;16.40;94.70
16269;DHT22;8242;50.434;8.496;2023-02-07T01:03:59;16.30;94.70
16269;DHT22;8242;50.434;8.496;2023-02-07T01:06:26;16.20;94.70
16269;DHT22;8242;50.434;8.496;2023-02-07T01:08:56;16.20;94.70
16269;DHT22;8242;50.434;8.496;2023-02-07T01:11:23;16.20;94.70
16269;DHT22;8242;50.434;8.496;2023-02-07T01:13:49;16.20;94.70
16269;DHT22;8242;50.434;8.496;2023-02-07T01:16:17;16.20;94.70
16269;DHT22;8242;50.434;8.496;2023-02-07T01:18:43;16.20;94.70
16269;DHT22;8242;50.434;8.496;2023-02-07T01:21:14;16.30;94.60
16269;DHT22;8242;50.434;8.496;2023-02-07T01:23:40;16.40;94.50
16269;DHT22;8242;50.434;8.496;2023-02-07T01:26:08;16.60;94.30
16269;DHT22;8242;50.434;8.496;2023-02-07T01:28:35;16.80;94.10
16269;DHT22;8242;50.434;8.496;2023-02-07T01:31:04;17.00;93.90
16269;DHT22;8242;50.434;8.496;2023-02-07T01:33:31;17.10;93.80
16269;DHT22;8242;50.434;8.496;2023-02-07T01:35:58;17.10;93.70
16269;DHT22;8242;50.434;8.496;2023-02-07T01:38:24;17.20;93.80
16269;DHT22;8242;50.434;8.496;2023-02-07T01:40:51;17.10;93.80
16269;DHT22;8242;50.434;8.496;2023-02-07T01:43:19;17.00;93.80
16269;DHT22;8242;50.434;8.496;2023-02-07T01:45:47;17.00;94.00
16269;DHT22;8242;50.434;8.496;2023-02-07T01:48:15;16.90;94.00
16269;DHT22;8242;50.434;8.496;2023-02-07T01:50:45;16.90;94.10
16269;DHT22;8242;50.434;8.496;2023-02-07T01:53:13;16.80;94.10
16269;DHT22;8242;50.434;8.496;2023-02-07T01:55:41;16.70;94.10
16269;DHT22;8242;50.434;8.496;2023-02-07T01:58:08;16.70;94.20
16269;DHT22;8242;50.434;8.496;2023-02-07T02:00:36;16.60;94.20
16269;DHT22;8242;50.434;8.496;2023-02-07T02:03:03;16.60;94.30
16269;DHT22;8242;50.434;8.496;2023-02-07T02:05:30;16.60;94.30
16269;DHT22;8242;50.434;8.496;2023-02-07T02:07:57;16.50;94.30
16269;DHT22;8242;50.434;8.496;2023-02-07T02:10:30;16.40;94.30
16269;DHT22;8242;50.434;8.496;2023-02-07T02:13:05;16.40;94.40
16269;DHT22;8242;50.434;8.496;2023-02-07T02:15:38;16.40;94.40
16269;DHT22;8242;50.434;8.496;2023-02-07T02:18:13;16.40;94.50
16269;DHT22;8242;50.434;8.496;2023-02-07T02:20:51;16.30;94.50
16269;DHT22;8242;50.434;8.496;2023-02-07T02:23:26;16.30;94.50
16269;DHT22;8242;50.434;8.496;2023-02-07T02:26:07;16.30;94.60
16269;DHT22;8242;50.434;8.496;2023-02-07T02:31:40;16.20;94.60
16269;DHT22;8242;50.434;8.496;2023-02-07T02:34:10;16.10;94.60
16269;DHT22;8242;50.434;8.496;2023-02-07T02:36:39;16.10;94.60
16269;DHT22;8242;50.434;8.496;2023-02-07T02:39:12;16.10;94.60
16269;DHT22;8242;50.434;8.496;2023-02-07T02:41:41;16.20;94.60
16269;DHT22;8242;50.434;8.496;2023-02-07T02:44:12;16.20;94.50
16269;DHT22;8242;50.434;8.496;2023-02-07T02:46:43;16.40;94.40
16269;DHT22;8242;50.434;8.496;2023-02-07T02:49:12;16.50;94.20
16269;DHT22;8242;50.434;8.496;2023-02-07T02:51:40;16.60;94.00
16269;DHT22;8242;50.434;8.496;2023-02-07T02:56:53;16.90;93.80
16269;DHT22;8242;50.434;8.496;2023-02-07T02:59:28;17.00;93.80
16269;DHT22;8242;50.434;8.496;2023-02-07T03:02:00;17.00;93.70
16269;DHT22;8242;50.434;8.496;2023-02-07T03:04:48;17.00;93.80
16269;DHT22;8242;50.434;8.496;2023-02-07T03:07:20;16.90;93.80
16269;DHT22;8242;50.434;8.496;2023-02-07T03:09:55;16.90;93.80
16269;DHT22;8242;50.434;8.496;2023-02-07T03:12:25;16.80;93.90
16269;DHT22;8242;50.434;8.496;2023-02-07T03:14:54;16.80;94.00
16269;DHT22;8242;50.434;8.496;2023-02-07T03:17:24;16.70;94.00
16269;DHT22;8242;50.434;8.496;2023-02-07T03:19:54;16.70;94.10
16269;DHT22;8242;50.434;8.496;2023-02-07T03:22:23;16.60;94.10
16269;DHT22;8242;50.434;8.496;2023-02-07T03:24:51;16.60;94.10
16269;DHT22;8242;50.434;8.496;2023-02-07T03:27:19;16.50;94.20
16269;DHT22;8242;50.434;8.496;2023-02-07T03:29:47;16.50;94.20
16269;DHT22;8242;50.434;8.496;2023-02-07T03:32:15;16.40;94.20
16269;DHT22;8242;50.434;8.496;2023-02-07T03:34:44;16.40;94.30
16269;DHT22;8242;50.434;8.496;2023-02-07T03:37:17;16.30;94.30
16269;DHT22;8242;50.434;8.496;2023-02-07T03:39:45;16.30;94.30
16269;DHT22;8242;50.434;8.496;2023-02-07T03:42:13;16.30;94.40
16269;DHT22;8242;50.434;8.496;2023-02-07T03:44:41;16.30;94.40
16269;DHT22;8242;50.434;8.496;2023-02-07T03:47:09;16.30;94.50
16269;DHT22;8242;50.434;8.496;2023-02-07T03:49:35;16.20;94.50
16269;DHT22;8242;50.434;8.496;2023-02-07T03:52:02;16.20;94.50
16269;DHT22;8242;50.434;8.496;2023-02-07T03:54:30;16.10;94.50
16269;DHT22;8242;50.434;8.496;2023-02-07T03:56:56;16.10;94.50
16269;DHT22;8242;50.434;8.496;2023-02-07T03:59:23;16.10;94.50
16269;DHT22;8242;50.434;8.496;2023-02-07T04:01:50;16.10;94.50
16269;DHT22;8242;50.434;8.496;2023-02-07T04:04:16;16.10;94.40
16269;DHT22;8242;50.434;8.496;2023-02-07T04:06:43;16.20;94.30
16269;DHT22;8242;50.434;8.496;2023-02-07T04:09:09;16.40;94.20
16269;DHT22;8242;50.434;8.496;2023-02-07T04:11:37;16.40;94.00
16269;DHT22;8242;50.434;8.496;2023-02-07T04:14:04;16.60;94.00
16269;DHT22;8242;50.434;8.496;2023-02-07T04:16:30;16.70;93.90
16269;DHT22;8242;50.434;8.496;2023-02-07T04:18:57;16.70;93.80
16269;DHT22;8242;50.434;8.496;2023-02-07T04:21:23;16.70;93.70
16269;DHT22;8242;50.434;8.496;2023-02-07T04:23:50;16.70;93.70
16269;DHT22;8242;50.434;8.496;2023-02-07T04:26:16;16.70;93.70
16269;DHT22;8242;50.434;8.496;2023-02-07T04:28:44;16.70;93.80
16269;DHT22;8242;50.434;8.496;2023-02-07T04:31:11;16.60;93.90
16269;DHT22;8242;50.434;8.496;2023-02-07T04:33:37;16.60;93.90
16269;DHT22;8242;50.434;8.496;2023-02-07T04:36:04;16.50;93.90
16269;DHT22;8242;50.434;8.496;2023-02-07T04:38:31;16.50;94.00
16269;DHT22;8242;50.434;8.496;2023-02-07T04:40:58;16.40;94.00
16269;DHT22;8242;50.434;8.496;2023-02-07T04:43:25;16.40;94.10
16269;DHT22;8242;50.434;8.496;2023-02-07T04:45:52;16.40;94.10
16269;DHT22;8242;50.434;8.496;2023-02-07T04:48:19;16.40;94.20
16269;DHT22;8242;50.434;8.496;2023-02-07T04:50:46;16.30;94.20
16269;DHT22;8242;50.434;8.496;2023-02-07T04:53:12;16.30;94.30
16269;DHT22;8242;50.434;8.496;2023-02-07T04:55:39;16.20;94.30
16269;DHT22;8242;50.434;8.496;2023-02-07T04:58:06;16.20;94.30
16269;DHT22;8242;50.434;8.496;2023-02-07T05:00:32;16.10;94.30
16269;DHT22;8242;50.434;8.496;2023-02-07T05:03:01;16.10;94.30
16269;DHT22;8242;50.434;8.496;2023-02-07T05:05:27;16.10;94.30
16269;DHT22;8242;50.434;8.496;2023-02-07T05:07:54;16.00;94.30
16269;DHT22;8242;50.434;8.496;2023-02-07T05:10:20;16.00;94.40
16269;DHT22;8242;50.434;8.496;2023-02-07T05:12:47;16.00;94.40
16269;DHT22;8242;50.434;8.496;2023-02-07T05:15:13;15.90;94.30
16269;DHT22;8242;50.434;8.496;2023-02-07T05:17:40;15.90;94.40
16269;DHT22;8242;50.434;8.496;2023-02-07T05:20:08;15.90;94.40
16269;DHT22;8242;50.434;8.496;2023-02-07T05:22:35;15.90;94.40
16269;DHT22;8242;50.434;8.496;2023-02-07T05:25:01;16.00;94.40
16269;DHT22;8242;50.434;8.496;2023-02-07T05:27:28;16.00;94.30
16269;DHT22;8242;50.434;8.496;2023-02-07T05:29:55;16.10;94.30
16269;DHT22;8242;50.434;8.496;2023-02-07T05:32:23;16.10;94.20
16269;DHT22;8242;50.434;8.496;2023-02-07T05:35:09;16.20;94.20
16269;DHT22;8242;50.434;8.496;2023-02-07T05:37:36;16.20;94.10
16269;DHT22;8242;50.434;8.496;2023-02-07T05:40:02;16.20;94.00
16269;DHT22;8242;50.434;8.496;2023-02-07T05:42:29;16.20;94.00
16269;DHT22;8242;50.434;8.496;2023-02-07T05:44:56;16.20;94.00
16269;DHT22;8242;50.434;8.496;2023-02-07T05:47:22;16.20;94.10
16269;DHT22;8242;50.434;8.496;2023-02-07T05:49:49;16.20;94.10
16269;DHT22;8242;50.434;8.496;2023-02-07T05:52:17;16.20;94.10
16269;DHT22;8242;50.434;8.496;2023-02-07T05:54:43;16.60;93.60
16269;DHT22;8242;50.434;8.496;2023-02-07T05:57:10;17.20;92.90
16269;DHT22;8242;50.434;8.496;2023-02-07T05:59:36;17.80;92.50
16269;DHT22;8242;50.434;8.496;2023-02-07T06:02:03;18.10;92.20
16269;DHT22;8242;50.434;8.496;2023-02-07T06:04:29;18.30;92.00
16269;DHT22;8242;50.434;8.496;2023-02-07T06:06:56;18.50;91.90
16269;DHT22;8242;50.434;8.496;2023-02-07T06:09:24;18.70;91.80
16269;DHT22;8242;50.434;8.496;2023-02-07T06:11:50;18.80;91.80
16269;DHT22;8242;50.434;8.496;2023-02-07T06:14:17;18.80;91.70
16269;DHT22;8242;50.434;8.496;2023-02-07T06:16:44;18.90;91.70
16269;DHT22;8242;50.434;8.496;2023-02-07T06:19:10;19.00;91.70
16269;DHT22;8242;50.434;8.496;2023-02-07T06:21:37;19.10;91.70
16269;DHT22;8242;50.434;8.496;2023-02-07T06:24:03;19.20;91.70
16269;DHT22;8242;50.434;8.496;2023-02-07T06:26:31;19.20;91.70
16269;DHT22;8242;50.434;8.496;2023-02-07T06:28:58;19.20;91.80
16269;DHT22;8242;50.434;8.496;2023-02-07T06:31:24;19.30;91.80
16269;DHT22;8242;50.434;8.496;2023-02-07T06:33:51;19.30;91.80
16269;DHT22;8242;50.434;8.496;2023-02-07T06:36:18;19.30;91.80
16269;DHT22;8242;50.434;8.496;2023-02-07T06:38:44;19.30;91.90
16269;DHT22;8242;50.434;8.496;2023-02-07T06:41:11;19.20;91.90
16269;DHT22;8242;50.434;8.496;2023-02-07T06:43:39;19.20;92.00
16269;DHT22;8242;50.434;8.496;2023-02-07T06:46:06;19.20;92.00
16269;DHT22;8242;50.434;8.496;2023-02-07T06:48:32;19.10;92.20
16269;DHT22;8242;50.434;8.496;2023-02-07T06:50:59;19.00;92.20
16269;DHT22;8242;50.434;8.496;2023-02-07T06:53:25;18.90;91.30
16269;DHT22;8242;50.434;8.496;2023-02-07T06:55:54;18.80;91.90
16269;DHT22;8242;50.434;8.496;2023-02-07T06:58:20;18.80;92.10
16269;DHT22;8242;50.434;8.496;2023-02-07T07:00:48;18.80;92.20
16269;DHT22;8242;50.434;8.496;2023-02-07T07:03:15;18.70;92.30
16269;DHT22;8242;50.434;8.496;2023-02-07T07:05:42;18.60;92.30
16269;DHT22;8242;50.434;8.496;2023-02-07T07:08:09;18.60;92.50
16269;DHT22;8242;50.434;8.496;2023-02-07T07:10:36;18.50;92.50
16269;DHT22;8242;50.434;8.496;2023-02-07T07:13:02;18.40;92.60
16269;DHT22;8242;50.434;8.496;2023-02-07T07:15:29;18.40;92.70
16269;DHT22;8242;50.434;8.496;2023-02-07T07:17:57;18.40;92.70
16269;DHT22;8242;50.434;8.496;2023-02-07T07:20:23;18.30;92.80
16269;DHT22;8242;50.434;8.496;2023-02-07T07:22:50;18.30;92.80
16269;DHT22;8242;50.434;8.496;2023-02-07T07:25:16;18.30;92.80
16269;DHT22;8242;50.434;8.496;2023-02-07T07:27:44;18.30;92.90
16269;DHT22;8242;50.434;8.496;2023-02-07T07:30:10;18.20;92.90
16269;DHT22;8242;50.434;8.496;2023-02-07T07:32:37;18.20;92.90
16269;DHT22;8242;50.434;8.496;2023-02-07T07:35:06;18.20;92.90
16269;DHT22;8242;50.434;8.496;2023-02-07T07:37:32;18.30;92.90
16269;DHT22;8242;50.434;8.496;2023-02-07T07:39:59;18.50;92.70
16269;DHT22;8242;50.434;8.496;2023-02-07T07:42:25;18.60;92.50
16269;DHT22;8242;50.434;8.496;2023-02-07T07:44:52;18.80;92.20
16269;DHT22;8242;50.434;8.496;2023-02-07T07:47:19;19.00;92.20
16269;DHT22;8242;50.434;8.496;2023-02-07T07:49:45;19.20;92.10
16269;DHT22;8242;50.434;8.496;2023-02-07T07:52:13;19.30;92.00
16269;DHT22;8242;50.434;8.496;2023-02-07T07:54:40;19.30;91.90
16269;DHT22;8242;50.434;8.496;2023-02-07T07:57:06;19.30;91.90
16269;DHT22;8242;50.434;8.496;2023-02-07T07:59:33;19.30;92.00
16269;DHT22;8242;50.434;8.496;2023-02-07T08:01:59;19.20;92.10
16269;DHT22;8242;50.434;8.496;2023-02-07T08:04:26;19.10;92.20
16269;DHT22;8242;50.434;8.496;2023-02-07T08:06:52;19.10;92.40
16269;DHT22;8242;50.434;8.496;2023-02-07T08:09:21;18.90;92.40
16269;DHT22;8242;50.434;8.496;2023-02-07T08:11:47;18.80;92.50
16269;DHT22;8242;50.434;8.496;2023-02-07T08:14:14;18.70;92.40
16269;DHT22;8242;50.434;8.496;2023-02-07T08:16:40;18.40;91.60
16269;DHT22;8242;50.434;8.496;2023-02-07T08:19:07;18.20;92.20
16269;DHT22;8242;50.434;8.496;2023-02-07T08:21:33;18.30;92.50
